Time;durP1;ratioP1;P1;durP2;ratioP2;P2;SDS_P1;SDS_P2;PMS_P1;PMS_P2;Temp;Humidity;BMP_temperature;BMP_pressure;BME280_temperature;BME280_humidity;BME280_pressure;Samples;Min_cycle;Max_cycle;Signal;HPM_P1;HPM_P2
2021/06/30 00:01:40;;;;;;;0.10;0.10;;;16.90;99.90;;;;;;5033893;28;20025;-74
2021/06/30 00:04:06;;;;;;;0.10;0.10;;;16.90;99.90;;;;;;5051599;28;20028;-74
2021/06/30 00:06:32;;;;;;;0.10;0.10;;;16.90;99.90;;;;;;5033664;28;20039;-74
2021/06/30 00:08:57;;;;;;;4.88;4.57;;;16.90;99.90;;;;;;5053611;28;20021;-75
2021/06/30 00:11:23;;;;;;;0.10;0.10;;;17.00;99.90;;;;;;5055519;28;20071;-74
2021/06/30 00:13:49;;;;;;;0.10;0.10;;;16.90;99.90;;;;;;5037524;28;20017;-74
2021/06/30 00:16:14;;;;;;;0.10;0.10;;;16.80;99.90;;;;;;5055562;28;20029;-75
2021/06/30 00:18:41;;;;;;;0.10;0.10;;;16.80;99.90;;;;;;5055113;28;20032;-74
2021/06/30 00:21:07;;;;;;;0.10;0.10;;;17.10;99.90;;;;;;5055285;28;20412;-74
2021/06/30 00:23:34;;;;;;;0.15;0.15;;;17.10;99.90;;;;;;5055239;28;20025;-74
2021/06/30 00:25:59;;;;;;;0.10;0.10;;;17.20;99.90;;;;;;5054987;28;20032;-74
2021/06/30 00:28:25;;;;;;;0.00;0.00;;;17.00;99.90;;;;;;5054998;28;20025;-74
2021/06/30 00:30:51;;;;;;;0.35;0.35;;;17.00;99.90;;;;;;5055050;28;20413;-75
2021/06/30 00:33:18;;;;;;;0.10;0.10;;;17.00;99.90;;;;;;5037079;28;20024;-75
2021/06/30 00:35:44;;;;;;;0.10;0.10;;;16.90;99.90;;;;;;5048971;23;20025;-72
2021/06/30 00:38:09;;;;;;;0.10;0.10;;;16.80;99.90;;;;;;5034905;28;20033;-72
2021/06/30 00:40:35;;;;;;;0.10;0.10;;;16.70;99.90;;;;;;5017307;28;20385;-72
2021/06/30 00:43:01;;;;;;;0.10;0.10;;;16.80;99.90;;;;;;5034786;28;20022;-72
2021/06/30 00:45:27;;;;;;;0.10;0.10;;;16.90;99.90;;;;;;5000636;28;20064;-72
2021/06/30 00:47:52;;;;;;;0.10;0.10;;;17.10;99.90;;;;;;5034626;28;20538;-72
2021/06/30 00:50:19;;;;;;;0.10;0.10;;;16.90;99.90;;;;;;5034592;28;20071;-73
2021/06/30 00:52:45;;;;;;;0.10;0.10;;;16.90;99.90;;;;;;5034564;28;20025;-72
2021/06/30 00:55:12;;;;;;;0.08;0.08;;;16.80;99.90;;;;;;5016874;28;20112;-72
2021/06/30 00:57:38;;;;;;;0.10;0.10;;;16.80;99.90;;;;;;5034410;28;20063;-73
2021/06/30 01:00:06;;;;;;;0.10;0.10;;;16.80;99.90;;;;;;5000322;28;20033;-73
2021/06/30 01:02:32;;;;;;;0.52;0.47;;;16.80;99.90;;;;;;5034345;28;20026;-73
2021/06/30 01:04:58;;;;;;;0.20;0.15;;;16.60;99.90;;;;;;5034327;28;20504;-73
2021/06/30 01:07:24;;;;;;;0.10;0.10;;;16.30;99.90;;;;;;5016384;28;20088;-72
2021/06/30 01:09:50;;;;;;;0.10;0.10;;;16.40;99.90;;;;;;5016473;28;20029;-73
2021/06/30 01:12:15;;;;;;;0.10;0.10;;;16.30;99.90;;;;;;5034244;28;20480;-72
2021/06/30 01:14:41;;;;;;;0.10;0.10;;;16.10;99.90;;;;;;5016705;28;20013;-72
2021/06/30 01:17:08;;;;;;;1.20;1.10;;;16.10;99.90;;;;;;5034095;28;20037;-72
2021/06/30 01:19:37;;;;;;;0.10;0.10;;;16.20;99.90;;;;;;5033570;28;20384;-73
2021/06/30 01:22:07;;;;;;;0.10;0.10;;;16.00;99.90;;;;;;5033992;28;20064;-73
2021/06/30 01:24:34;;;;;;;0.10;0.10;;;16.00;99.90;;;;;;5033766;28;20640;-72
2021/06/30 01:27:00;;;;;;;0.10;0.10;;;16.00;99.90;;;;;;5033884;28;20493;-72
2021/06/30 01:29:26;;;;;;;0.10;0.10;;;16.20;99.90;;;;;;5033829;28;20056;-73
2021/06/30 01:31:52;;;;;;;0.10;0.10;;;16.30;99.90;;;;;;5033850;28;20064;-73
2021/06/30 01:34:18;;;;;;;0.35;0.35;;;16.20;99.90;;;;;;5016216;28;20022;-72
2021/06/30 01:36:46;;;;;;;0.10;0.10;;;16.30;99.90;;;;;;5033693;28;20044;-72
2021/06/30 01:39:12;;;;;;;0.13;0.13;;;16.20;99.90;;;;;;5033644;28;20385;-72
2021/06/30 01:41:39;;;;;;;0.10;0.10;;;16.20;99.90;;;;;;5015989;28;20030;-72
2021/06/30 01:44:05;;;;;;;0.00;0.00;;;16.30;99.90;;;;;;5033699;28;20264;-72
2021/06/30 01:46:31;;;;;;;0.10;0.10;;;16.40;99.90;;;;;;5015909;28;20032;-72
2021/06/30 01:48:56;;;;;;;0.00;0.00;;;16.50;99.90;;;;;;5033457;28;20380;-72
2021/06/30 01:51:22;;;;;;;0.10;0.10;;;16.50;99.90;;;;;;5015902;28;20037;-72
2021/06/30 01:53:48;;;;;;;0.10;0.10;;;16.40;99.90;;;;;;5033609;28;20048;-72
2021/06/30 01:56:13;;;;;;;0.10;0.10;;;16.30;99.90;;;;;;5033459;28;20044;-72
2021/06/30 01:58:39;;;;;;;0.10;0.10;;;16.30;99.90;;;;;;5033244;28;20083;-72
2021/06/30 02:01:05;;;;;;;0.10;0.10;;;16.30;99.90;;;;;;5015575;28;20111;-72
2021/06/30 02:03:31;;;;;;;0.10;0.10;;;16.10;99.90;;;;;;5033295;28;20292;-73
2021/06/30 02:05:57;;;;;;;0.10;0.10;;;16.00;99.90;;;;;;5033165;28;20025;-72
2021/06/30 02:08:22;;;;;;;0.10;0.10;;;16.10;99.90;;;;;;5015361;28;20022;-72
2021/06/30 02:10:48;;;;;;;0.10;0.10;;;16.20;99.90;;;;;;5033073;28;20029;-72
2021/06/30 02:13:14;;;;;;;0.10;0.10;;;16.20;99.90;;;;;;5032962;28;20048;-72
2021/06/30 02:15:41;;;;;;;0.10;0.10;;;16.20;99.90;;;;;;5015366;28;20025;-72
2021/06/30 02:18:07;;;;;;;0.10;0.10;;;16.10;99.90;;;;;;5032896;28;20024;-72
2021/06/30 02:20:33;;;;;;;0.10;0.10;;;16.10;99.90;;;;;;5032916;28;20029;-72
2021/06/30 02:22:59;;;;;;;0.10;0.10;;;15.80;99.90;;;;;;5032862;28;20033;-72
2021/06/30 02:25:27;;;;;;;0.40;0.40;;;15.60;99.90;;;;;;5032860;28;20025;-72
2021/06/30 02:27:54;;;;;;;0.25;0.25;;;15.40;99.90;;;;;;5032618;28;20028;-72
2021/06/30 02:30:29;;;;;;;0.10;0.10;;;15.30;99.90;;;;;;5032509;28;20022;-72
2021/06/30 02:32:56;;;;;;;0.57;0.40;;;15.30;99.90;;;;;;5032543;28;20109;-72
2021/06/30 02:35:24;;;;;;;0.03;0.03;;;15.30;99.90;;;;;;5032762;28;20437;-72
2021/06/30 02:37:53;;;;;;;0.45;0.45;;;15.40;99.90;;;;;;5032408;28;20057;-73
2021/06/30 02:40:22;;;;;;;1.55;0.45;;;15.50;99.90;;;;;;5032614;28;20021;-72
2021/06/30 02:42:48;;;;;;;0.45;0.45;;;15.40;99.90;;;;;;5032499;28;20025;-72
2021/06/30 02:45:17;;;;;;;0.00;0.00;;;15.30;99.90;;;;;;5014958;28;20025;-72
2021/06/30 02:47:45;;;;;;;0.20;0.20;;;15.20;99.90;;;;;;5014568;28;20389;-72
2021/06/30 02:50:12;;;;;;;0.50;0.40;;;15.30;99.90;;;;;;5032476;28;20449;-73
2021/06/30 02:52:39;;;;;;;0.22;0.22;;;15.30;99.90;;;;;;5014595;28;20056;-72
2021/06/30 02:55:07;;;;;;;0.10;0.10;;;15.20;99.90;;;;;;5014658;28;20523;-73
2021/06/30 02:57:33;;;;;;;0.05;0.05;;;15.20;99.90;;;;;;5032111;28;20034;-72
2021/06/30 02:59:59;;;;;;;0.10;0.10;;;15.20;99.90;;;;;;5032184;28;20061;-72
2021/06/30 03:02:25;;;;;;;0.50;0.50;;;15.10;99.90;;;;;;5032379;28;20061;-72
2021/06/30 03:04:51;;;;;;;0.20;0.20;;;15.10;99.90;;;;;;5014593;28;20025;-72
2021/06/30 03:07:17;;;;;;;0.03;0.03;;;15.00;99.90;;;;;;5031889;28;20029;-72
2021/06/30 03:09:42;;;;;;;0.30;0.30;;;15.00;99.90;;;;;;5032441;28;20046;-72
2021/06/30 03:12:09;;;;;;;0.50;0.50;;;15.00;99.90;;;;;;5031941;28;20036;-72
2021/06/30 03:14:34;;;;;;;0.47;0.47;;;14.90;99.90;;;;;;5032189;28;20249;-72
2021/06/30 03:17:00;;;;;;;0.15;0.10;;;14.80;99.90;;;;;;5032066;28;20022;-72
2021/06/30 03:19:26;;;;;;;0.43;0.30;;;14.70;99.90;;;;;;5031903;28;20030;-72
2021/06/30 03:21:52;;;;;;;0.22;0.22;;;14.80;99.90;;;;;;5014344;28;20029;-72
2021/06/30 03:24:17;;;;;;;0.20;0.20;;;14.60;99.90;;;;;;5031624;28;20084;-72
2021/06/30 03:26:43;;;;;;;0.10;0.10;;;14.40;99.90;;;;;;5031951;28;20025;-72
2021/06/30 03:29:09;;;;;;;0.20;0.20;;;14.40;99.90;;;;;;5031712;28;20056;-73
2021/06/30 03:31:35;;;;;;;0.10;0.10;;;14.40;99.90;;;;;;5014232;28;20048;-72
2021/06/30 03:34:01;;;;;;;0.20;0.20;;;14.30;99.90;;;;;;5031919;28;20018;-73
2021/06/30 03:36:27;;;;;;;0.13;0.13;;;14.50;99.90;;;;;;5031747;28;20120;-72
2021/06/30 03:38:53;;;;;;;0.20;0.20;;;14.40;99.90;;;;;;5013923;28;20042;-72
2021/06/30 03:41:19;;;;;;;0.10;0.10;;;14.40;99.90;;;;;;5031715;28;20037;-72
2021/06/30 03:43:45;;;;;;;0.68;0.50;;;14.30;99.90;;;;;;5017512;28;20036;-72
2021/06/30 03:46:11;;;;;;;0.10;0.10;;;14.20;99.90;;;;;;5035743;28;20025;-73
2021/06/30 03:48:38;;;;;;;0.47;0.20;;;14.20;99.90;;;;;;5035618;28;20052;-72
2021/06/30 03:51:04;;;;;;;0.10;0.10;;;14.10;99.90;;;;;;5018059;28;20029;-72
2021/06/30 03:53:30;;;;;;;0.75;0.17;;;14.00;99.90;;;;;;5035555;28;20025;-72
2021/06/30 03:55:56;;;;;;;0.17;0.17;;;14.10;99.90;;;;;;5017926;28;20461;-72
2021/06/30 03:58:22;;;;;;;0.10;0.10;;;14.00;99.90;;;;;;5017793;28;20495;-73
2021/06/30 04:00:47;;;;;;;0.20;0.20;;;14.10;99.90;;;;;;5035484;28;20037;-72
2021/06/30 04:03:13;;;;;;;0.15;0.15;;;14.00;99.90;;;;;;5017656;28;20033;-73
2021/06/30 04:05:39;;;;;;;0.10;0.10;;;14.00;99.90;;;;;;5035467;28;20033;-72
2021/06/30 04:08:09;;;;;;;0.10;0.10;;;13.90;99.90;;;;;;5035737;28;20026;-72
2021/06/30 04:10:35;;;;;;;1.15;0.20;;;13.80;99.90;;;;;;5035313;28;20087;-72
2021/06/30 04:13:01;;;;;;;0.65;0.30;;;13.70;99.90;;;;;;5035338;28;20021;-72
2021/06/30 04:15:26;;;;;;;0.10;0.10;;;13.60;99.90;;;;;;5035298;28;20529;-72
2021/06/30 04:17:52;;;;;;;0.17;0.17;;;13.60;99.90;;;;;;5035114;28;20496;-72
2021/06/30 04:20:18;;;;;;;0.10;0.10;;;13.50;99.90;;;;;;5035254;28;20022;-72
2021/06/30 04:22:43;;;;;;;1.60;0.73;;;13.30;99.90;;;;;;5035043;28;20036;-72
2021/06/30 04:25:10;;;;;;;11.30;0.22;;;13.30;99.90;;;;;;5034914;28;20083;-72
2021/06/30 04:27:35;;;;;;;0.20;0.20;;;13.20;99.90;;;;;;5034929;28;20063;-72
2021/06/30 04:30:04;;;;;;;0.10;0.10;;;13.20;99.90;;;;;;5035330;28;20096;-72
2021/06/30 04:32:30;;;;;;;0.10;0.10;;;13.40;99.90;;;;;;5034866;28;20025;-72
2021/06/30 04:34:55;;;;;;;0.10;0.10;;;13.40;99.90;;;;;;5017392;28;20025;-72
2021/06/30 04:37:21;;;;;;;0.10;0.10;;;13.50;99.90;;;;;;5016919;28;20037;-72
2021/06/30 04:39:47;;;;;;;0.10;0.10;;;13.60;99.90;;;;;;5017021;28;20115;-72
2021/06/30 04:42:13;;;;;;;0.20;0.20;;;13.50;99.90;;;;;;5034760;28;20037;-73
2021/06/30 04:44:38;;;;;;;0.15;0.15;;;13.30;99.90;;;;;;5000892;28;20032;-72
2021/06/30 04:47:04;;;;;;;0.57;0.57;;;13.10;99.90;;;;;;5034495;28;20064;-72
2021/06/30 04:49:30;;;;;;;0.15;0.15;;;13.00;99.90;;;;;;5016796;28;20026;-72
2021/06/30 04:51:55;;;;;;;0.20;0.20;;;13.00;99.90;;;;;;5034615;28;20029;-72
2021/06/30 04:54:22;;;;;;;0.10;0.10;;;13.00;99.90;;;;;;5033914;28;20022;-72
2021/06/30 04:56:48;;;;;;;0.10;0.10;;;13.00;99.90;;;;;;5033675;28;20400;-72
2021/06/30 04:59:14;;;;;;;0.10;0.10;;;12.90;99.90;;;;;;5022693;28;20029;-72
2021/06/30 05:01:40;;;;;;;0.15;0.15;;;12.90;99.90;;;;;;5033075;28;20028;-73
2021/06/30 05:04:06;;;;;;;0.15;0.15;;;13.10;99.90;;;;;;5029183;28;20026;-72
2021/06/30 05:06:34;;;;;;;0.10;0.10;;;13.20;99.90;;;;;;5020554;28;20481;-72
2021/06/30 05:08:59;;;;;;;0.10;0.10;;;13.10;99.90;;;;;;5024136;28;20028;-72
2021/06/30 05:11:25;;;;;;;0.20;0.20;;;13.20;99.90;;;;;;5033212;28;20021;-72
2021/06/30 05:13:51;;;;;;;0.10;0.10;;;13.20;99.90;;;;;;5032967;28;20033;-72
2021/06/30 05:16:16;;;;;;;0.10;0.10;;;13.10;99.90;;;;;;5033186;28;20486;-73
2021/06/30 05:18:42;;;;;;;0.10;0.10;;;13.10;99.90;;;;;;5028205;28;20350;-72
2021/06/30 05:21:08;;;;;;;0.10;0.10;;;13.30;99.90;;;;;;5027125;28;20026;-72
2021/06/30 05:23:33;;;;;;;0.10;0.10;;;13.20;99.90;;;;;;5015795;28;20112;-72
2021/06/30 05:25:59;;;;;;;0.10;0.10;;;13.20;99.90;;;;;;5030769;28;20040;-72
2021/06/30 05:28:25;;;;;;;0.10;0.10;;;13.30;99.90;;;;;;5018514;28;20022;-73
2021/06/30 05:30:51;;;;;;;0.10;0.10;;;13.40;99.90;;;;;;5032034;28;20348;-73
2021/06/30 05:33:16;;;;;;;0.10;0.10;;;13.50;99.90;;;;;;5031040;28;20072;-72
2021/06/30 05:35:42;;;;;;;0.25;0.25;;;13.70;99.90;;;;;;5032099;28;20087;-73
2021/06/30 05:38:08;;;;;;;0.13;0.13;;;13.80;99.90;;;;;;5018993;28;20033;-73
2021/06/30 05:40:33;;;;;;;0.10;0.10;;;13.90;99.90;;;;;;5020531;28;20083;-73
2021/06/30 05:42:59;;;;;;;0.10;0.10;;;14.10;99.90;;;;;;5025878;28;20027;-73
2021/06/30 05:45:25;;;;;;;0.50;0.50;;;14.20;99.90;;;;;;5031712;28;20021;-72
2021/06/30 05:47:51;;;;;;;0.10;0.10;;;14.30;99.90;;;;;;5031860;28;20559;-72
2021/06/30 05:50:20;;;;;;;0.20;0.20;;;14.30;99.90;;;;;;5027228;28;20030;-73
2021/06/30 05:52:46;;;;;;;0.10;0.10;;;14.30;99.90;;;;;;5032284;28;20108;-72
2021/06/30 05:55:12;;;;;;;0.32;0.32;;;14.20;99.90;;;;;;5019587;28;20127;-73
2021/06/30 05:57:38;;;;;;;0.10;0.10;;;14.20;99.90;;;;;;5032075;28;20026;-72
2021/06/30 06:00:07;;;;;;;0.10;0.10;;;14.10;99.90;;;;;;5019884;28;20095;-72
2021/06/30 06:02:33;;;;;;;0.10;0.10;;;14.10;99.90;;;;;;5032260;28;20025;-73
2021/06/30 06:04:59;;;;;;;0.10;0.10;;;14.10;99.90;;;;;;5022393;28;20029;-72
2021/06/30 06:07:25;;;;;;;0.20;0.20;;;14.10;99.90;;;;;;5030972;28;20033;-72
2021/06/30 06:09:50;;;;;;;0.10;0.10;;;14.30;99.90;;;;;;5031271;28;20029;-72
2021/06/30 06:12:17;;;;;;;0.10;0.10;;;14.30;99.90;;;;;;5031279;28;20033;-73
2021/06/30 06:14:42;;;;;;;0.10;0.10;;;14.20;99.90;;;;;;5032859;28;20021;-72
2021/06/30 06:17:09;;;;;;;0.10;0.10;;;14.30;99.90;;;;;;5035894;28;20040;-73
2021/06/30 06:19:35;;;;;;;5.38;0.32;;;14.40;99.90;;;;;;5031300;28;20025;-72
2021/06/30 06:22:04;;;;;;;0.10;0.10;;;14.40;99.90;;;;;;5031901;28;20100;-73
2021/06/30 06:24:30;;;;;;;0.10;0.10;;;14.40;99.90;;;;;;5015438;28;20045;-72
2021/06/30 06:26:56;;;;;;;0.10;0.10;;;14.60;99.90;;;;;;5019773;28;20088;-72
2021/06/30 06:29:23;;;;;;;0.10;0.10;;;14.60;99.90;;;;;;5022707;28;20064;-72
2021/06/30 06:31:49;;;;;;;0.10;0.10;;;14.60;99.90;;;;;;5031517;28;20503;-73
2021/06/30 06:34:19;;;;;;;0.10;0.10;;;14.70;99.90;;;;;;5021211;28;20405;-72
2021/06/30 06:36:46;;;;;;;0.10;0.10;;;14.80;99.90;;;;;;5031368;28;20120;-72
2021/06/30 06:39:13;;;;;;;0.17;0.17;;;14.80;99.90;;;;;;5030966;28;20108;-72
2021/06/30 06:41:39;;;;;;;0.10;0.10;;;14.80;99.90;;;;;;5022951;28;20256;-72
2021/06/30 06:44:05;;;;;;;0.52;0.40;;;14.90;99.90;;;;;;5031304;28;20021;-72
2021/06/30 06:46:31;;;;;;;0.10;0.10;;;14.80;99.90;;;;;;5030942;28;20033;-72
2021/06/30 06:48:57;;;;;;;0.10;0.10;;;14.90;99.90;;;;;;5031221;28;20024;-73
2021/06/30 06:51:22;;;;;;;0.10;0.10;;;14.80;99.90;;;;;;5024030;28;20021;-72
2021/06/30 06:53:48;;;;;;;0.10;0.10;;;14.90;99.90;;;;;;5031406;28;20060;-72
2021/06/30 06:56:18;;;;;;;0.10;0.10;;;15.20;99.90;;;;;;5025634;28;20108;-72
2021/06/30 06:58:44;;;;;;;0.20;0.20;;;15.20;99.90;;;;;;5018486;28;20033;-72
2021/06/30 07:01:10;;;;;;;0.20;0.20;;;15.20;99.90;;;;;;5022721;28;20084;-75
2021/06/30 07:03:36;;;;;;;0.10;0.10;;;15.30;99.90;;;;;;5029611;28;20029;-74
2021/06/30 07:06:02;;;;;;;0.15;0.15;;;15.40;99.90;;;;;;5030462;28;20484;-74
2021/06/30 07:08:28;;;;;;;0.10;0.10;;;15.10;99.90;;;;;;5024406;28;20058;-74
2021/06/30 07:10:54;;;;;;;0.10;0.10;;;15.00;99.90;;;;;;5030356;28;20042;-74
2021/06/30 07:13:20;;;;;;;0.10;0.10;;;15.10;99.90;;;;;;5021143;28;20399;-74
2021/06/30 07:15:46;;;;;;;0.10;0.10;;;15.20;99.90;;;;;;5019755;28;20026;-74
2021/06/30 07:18:14;;;;;;;0.10;0.10;;;15.30;99.90;;;;;;5030836;28;20025;-74
2021/06/30 07:20:39;;;;;;;0.20;0.20;;;15.50;99.90;;;;;;5023447;28;20362;-74
2021/06/30 07:23:05;;;;;;;0.10;0.10;;;15.50;99.90;;;;;;5003670;28;20087;-74
2021/06/30 07:25:31;;;;;;;0.57;0.22;;;15.50;99.90;;;;;;5023824;28;20034;-74
2021/06/30 07:27:58;;;;;;;0.10;0.10;;;15.50;99.90;;;;;;5021433;28;20427;-74
2021/06/30 07:30:24;;;;;;;1.15;0.60;;;15.70;99.90;;;;;;5005523;28;20029;-74
2021/06/30 07:32:50;;;;;;;0.10;0.10;;;15.70;99.90;;;;;;4998919;28;20029;-74
2021/06/30 07:35:16;;;;;;;0.10;0.10;;;15.90;99.90;;;;;;5023534;28;20026;-74
2021/06/30 07:37:41;;;;;;;0.10;0.10;;;16.10;99.90;;;;;;5017577;28;20489;-75
2021/06/30 07:40:08;;;;;;;0.20;0.20;;;16.20;99.90;;;;;;5029929;28;20032;-74
2021/06/30 07:42:34;;;;;;;0.10;0.10;;;16.10;99.90;;;;;;5030710;28;20102;-74
2021/06/30 07:45:00;;;;;;;0.20;0.20;;;15.90;99.90;;;;;;5030850;28;20084;-74
2021/06/30 07:47:26;;;;;;;0.17;0.17;;;15.80;99.90;;;;;;5017342;28;20036;-74
2021/06/30 07:49:52;;;;;;;0.20;0.20;;;15.90;99.90;;;;;;5029035;28;20021;-74
2021/06/30 07:52:17;;;;;;;0.10;0.10;;;15.80;99.90;;;;;;5029551;28;20489;-74
2021/06/30 07:54:43;;;;;;;0.30;0.30;;;15.90;99.90;;;;;;5013044;28;20090;-74
2021/06/30 07:57:09;;;;;;;0.20;0.20;;;15.80;99.90;;;;;;5030074;28;20509;-74
2021/06/30 07:59:34;;;;;;;0.17;0.17;;;15.80;99.90;;;;;;5021393;28;20061;-74
2021/06/30 08:02:00;;;;;;;0.10;0.10;;;15.80;99.90;;;;;;5015721;28;20052;-74
2021/06/30 08:04:26;;;;;;;0.10;0.10;;;15.90;99.90;;;;;;5030570;28;20060;-74
2021/06/30 08:06:51;;;;;;;0.17;0.17;;;16.10;99.90;;;;;;5023056;28;20026;-74
2021/06/30 08:09:17;;;;;;;0.10;0.10;;;16.30;99.90;;;;;;5030198;28;20032;-74
2021/06/30 08:11:43;;;;;;;0.10;0.10;;;16.30;99.90;;;;;;5030048;28;20045;-74
2021/06/30 08:14:09;;;;;;;0.10;0.10;;;16.40;99.90;;;;;;5030576;28;20477;-74
2021/06/30 08:16:35;;;;;;;0.17;0.17;;;16.40;99.90;;;;;;5030090;28;20033;-74
2021/06/30 08:19:00;;;;;;;0.10;0.10;;;16.50;99.90;;;;;;5030329;28;20026;-74
2021/06/30 08:21:27;;;;;;;0.40;0.20;;;16.70;99.90;;;;;;5029591;28;20428;-74
2021/06/30 08:23:53;;;;;;;0.10;0.10;;;16.70;99.90;;;;;;5020180;28;20057;-74
2021/06/30 08:26:19;;;;;;;0.10;0.10;;;17.00;99.90;;;;;;5030153;28;20127;-74
2021/06/30 08:28:46;;;;;;;0.05;0.05;;;17.20;99.90;;;;;;5030167;28;20477;-74
2021/06/30 08:31:12;;;;;;;0.10;0.10;;;17.50;99.90;;;;;;5027261;28;20148;-74
2021/06/30 08:33:38;;;;;;;0.20;0.20;;;17.80;99.90;;;;;;5033780;28;20484;-73
2021/06/30 08:36:05;;;;;;;0.10;0.10;;;17.80;99.90;;;;;;5020711;28;20033;-73
2021/06/30 08:38:31;;;;;;;0.10;0.10;;;18.00;99.90;;;;;;5023016;28;20501;-74
2021/06/30 08:40:59;;;;;;;0.17;0.17;;;18.10;99.90;;;;;;5033321;28;20026;-74
2021/06/30 08:43:25;;;;;;;0.10;0.10;;;18.10;99.90;;;;;;5033613;28;20021;-73
2021/06/30 08:45:51;;;;;;;0.10;0.10;;;18.10;99.90;;;;;;5033485;28;20048;-73
2021/06/30 08:48:19;;;;;;;0.10;0.10;;;18.40;99.90;;;;;;5032911;28;20017;-73
2021/06/30 08:50:45;;;;;;;0.10;0.10;;;18.20;99.90;;;;;;5026697;28;20025;-74
2021/06/30 08:53:13;;;;;;;0.10;0.10;;;17.80;99.90;;;;;;5024586;28;20025;-74
2021/06/30 08:55:45;;;;;;;0.10;0.10;;;17.60;99.90;;;;;;5033629;28;20040;-75
2021/06/30 08:58:13;;;;;;;0.10;0.10;;;17.80;99.90;;;;;;5032876;28;20112;-75
2021/06/30 09:00:41;;;;;;;0.10;0.10;;;18.00;99.90;;;;;;5032927;28;20362;-75
2021/06/30 09:03:12;;;;;;;0.00;0.00;;;17.90;99.90;;;;;;5028835;28;20030;-74
2021/06/30 09:08:20;;;;;;;0.20;0.20;;;18.00;99.90;;;;;;5032121;28;20029;-73
2021/06/30 09:10:45;;;;;;;0.10;0.10;;;18.00;99.90;;;;;;5033064;28;20428;-73
2021/06/30 09:13:23;;;;;;;0.10;0.10;;;17.70;99.90;;;;;;5032403;28;20025;-73
2021/06/30 09:15:59;;;;;;;0.10;0.10;;;17.60;99.90;;;;;;5033166;28;20033;-73
2021/06/30 09:18:37;;;;;;;0.10;0.10;;;17.60;99.90;;;;;;5032116;28;20118;-72
2021/06/30 09:21:22;;;;;;;0.10;0.10;;;17.60;99.90;;;;;;5020972;28;20029;-72
2021/06/30 09:24:12;;;;;;;0.20;0.20;;;17.70;99.90;;;;;;5032027;28;20493;-72
2021/06/30 09:26:58;;;;;;;0.10;0.10;;;17.70;99.90;;;;;;5031891;28;20030;-72
2021/06/30 09:29:24;;;;;;;0.20;0.20;;;17.80;99.90;;;;;;5027801;28;20455;-72
2021/06/30 09:31:53;;;;;;;0.80;0.43;;;17.50;99.90;;;;;;5031446;28;20022;-71
2021/06/30 09:34:24;;;;;;;0.10;0.10;;;17.50;99.90;;;;;;5032734;28;20045;-71
2021/06/30 09:37:00;;;;;;;2.10;0.40;;;17.40;99.90;;;;;;5018753;28;20064;-71
2021/06/30 09:39:27;;;;;;;0.00;0.00;;;17.30;99.90;;;;;;5032487;28;20152;-72
2021/06/30 09:42:12;;;;;;;0.10;0.10;;;17.20;99.90;;;;;;5031281;28;20639;-71
2021/06/30 09:44:40;;;;;;;0.35;0.35;;;17.50;99.90;;;;;;5028301;28;20025;-72
2021/06/30 09:47:07;;;;;;;0.10;0.10;;;17.40;98.00;;;;;;5031251;28;20026;-71
2021/06/30 09:49:36;;;;;;;0.10;0.10;;;17.10;97.80;;;;;;5021366;28;20025;-72
2021/06/30 09:52:15;;;;;;;2.67;0.15;;;17.30;98.80;;;;;;5031294;28;20057;-72
2021/06/30 09:54:43;;;;;;;0.40;0.40;;;17.30;99.20;;;;;;5029221;28;20017;-72
2021/06/30 09:57:13;;;;;;;1.48;0.40;;;17.40;99.80;;;;;;5031445;28;20035;-71
2021/06/30 09:59:43;;;;;;;0.20;0.20;;;17.20;96.40;;;;;;5008632;28;20028;-71
2021/06/30 10:02:13;;;;;;;12.30;0.93;;;17.20;97.20;;;;;;5018319;28;20029;-72
2021/06/30 10:04:44;;;;;;;0.00;0.00;;;17.30;97.20;;;;;;5026504;28;20033;-72
2021/06/30 10:07:17;;;;;;;0.10;0.10;;;17.60;97.40;;;;;;5031772;28;20025;-72
2021/06/30 10:09:48;;;;;;;0.20;0.20;;;17.90;95.30;;;;;;5031833;28;20025;-71
2021/06/30 10:12:16;;;;;;;0.20;0.20;;;17.70;92.70;;;;;;5030519;28;20389;-72
2021/06/30 10:14:45;;;;;;;0.10;0.10;;;17.50;92.40;;;;;;5020645;28;20043;-73
2021/06/30 10:17:12;;;;;;;5.75;1.00;;;17.30;93.10;;;;;;5020488;28;20497;-72
2021/06/30 10:19:40;;;;;;;0.10;0.10;;;17.40;92.60;;;;;;5030131;28;20109;-72
2021/06/30 10:22:08;;;;;;;0.20;0.20;;;17.20;93.70;;;;;;5020791;28;20496;-71
2021/06/30 10:24:36;;;;;;;0.10;0.10;;;17.20;93.30;;;;;;5031019;28;20025;-71
2021/06/30 10:27:03;;;;;;;0.20;0.20;;;17.00;94.30;;;;;;5023994;28;20103;-71
2021/06/30 10:29:32;;;;;;;0.10;0.10;;;17.10;94.60;;;;;;5030371;28;20029;-72
2021/06/30 10:32:10;;;;;;;0.25;0.25;;;17.50;95.70;;;;;;5029496;28;20030;-72
2021/06/30 10:34:44;;;;;;;0.10;0.10;;;17.50;95.10;;;;;;5030670;28;20033;-72
2021/06/30 10:37:22;;;;;;;0.08;0.08;;;17.80;94.70;;;;;;5029848;28;20029;-71
2021/06/30 10:39:52;;;;;;;0.10;0.10;;;17.90;93.40;;;;;;5016276;28;20022;-72
2021/06/30 10:42:33;;;;;;;0.10;0.10;;;17.90;92.30;;;;;;5030384;28;20068;-71
2021/06/30 10:45:12;;;;;;;1.35;0.20;;;18.00;92.40;;;;;;5030783;28;20052;-72
2021/06/30 10:47:51;;;;;;;0.15;0.15;;;17.80;91.20;;;;;;5016334;28;20395;-72
2021/06/30 10:50:19;;;;;;;0.20;0.20;;;18.00;91.20;;;;;;5031069;28;20028;-70
2021/06/30 10:53:09;;;;;;;0.10;0.10;;;17.80;92.30;;;;;;5030374;28;20366;-70
2021/06/30 10:58:13;;;;;;;0.30;0.30;;;17.70;92.10;;;;;;5030047;28;20095;-70
2021/06/30 11:00:42;;;;;;;0.10;0.10;;;17.40;93.40;;;;;;5016456;28;20044;-70
2021/06/30 11:03:30;;;;;;;0.10;0.10;;;17.50;94.60;;;;;;5001741;28;20021;-70
2021/06/30 11:06:26;;;;;;;1.65;0.20;;;17.30;93.70;;;;;;5022662;28;20075;-70
2021/06/30 11:08:56;;;;;;;0.10;0.10;;;17.40;94.30;;;;;;5027797;28;20030;-69
2021/06/30 11:11:34;;;;;;;0.20;0.20;;;17.40;94.20;;;;;;5030971;28;20021;-71
2021/06/30 11:14:07;;;;;;;5.05;0.20;;;17.50;98.00;;;;;;5029810;28;20481;-71
2021/06/30 11:16:45;;;;;;;0.20;0.20;;;17.70;97.30;;;;;;5031030;28;20923;-72
2021/06/30 11:19:20;;;;;;;0.10;0.10;;;17.50;95.50;;;;;;5029573;28;20033;-72
2021/06/30 11:21:53;;;;;;;0.70;0.50;;;17.30;97.40;;;;;;5030675;28;20113;-72
2021/06/30 11:27:22;;;;;;;0.20;0.20;;;16.70;97.70;;;;;;5030662;28;20029;-71
2021/06/30 11:30:02;;;;;;;0.10;0.10;;;16.70;98.80;;;;;;5029624;28;20079;-72
2021/06/30 11:32:31;;;;;;;2.17;0.35;;;16.70;97.90;;;;;;5014310;28;20478;-71
2021/06/30 11:35:26;;;;;;;0.10;0.10;;;16.80;96.60;;;;;;5017763;28;20021;-72
2021/06/30 11:38:10;;;;;;;0.10;0.10;;;16.90;95.80;;;;;;5008177;28;20041;-71
2021/06/30 11:40:41;;;;;;;0.40;0.40;;;16.80;96.80;;;;;;5018460;28;20507;-71
2021/06/30 11:43:16;;;;;;;0.52;0.40;;;16.90;96.70;;;;;;5030333;28;20036;-71
2021/06/30 11:45:42;;;;;;;0.10;0.10;;;16.80;96.20;;;;;;5029797;28;20100;-71
2021/06/30 11:48:11;;;;;;;2.47;0.95;;;16.40;95.10;;;;;;5017041;28;20077;-71
2021/06/30 11:51:15;;;;;;;0.10;0.10;;;16.50;96.20;;;;;;5029779;28;20025;-72
2021/06/30 11:53:49;;;;;;;0.00;0.00;;;16.60;96.40;;;;;;4935979;29;20107;-71
2021/06/30 11:56:37;;;;;;;0.17;0.17;;;16.90;96.50;;;;;;4937772;29;20092;-71
2021/06/30 11:59:17;;;;;;;0.45;0.22;;;17.00;95.10;;;;;;5001162;28;20203;-71
2021/06/30 12:01:42;;;;;;;0.20;0.20;;;16.90;94.70;;;;;;5029960;28;20021;-73
2021/06/30 12:04:09;;;;;;;0.20;0.20;;;16.50;95.70;;;;;;5030121;28;20040;-72
2021/06/30 12:06:35;;;;;;;0.10;0.10;;;16.50;96.90;;;;;;5032774;28;20035;-73
2021/06/30 12:09:21;;;;;;;0.10;0.10;;;16.70;96.70;;;;;;5033972;28;20408;-73
2021/06/30 12:11:58;;;;;;;0.10;0.10;;;16.80;95.30;;;;;;5033806;28;20025;-73
2021/06/30 12:14:29;;;;;;;0.25;0.25;;;16.70;95.10;;;;;;5033356;28;20081;-73
2021/06/30 12:17:00;;;;;;;0.10;0.10;;;16.40;95.60;;;;;;5034239;28;20021;-72
2021/06/30 12:20:02;;;;;;;0.20;0.20;;;16.40;95.90;;;;;;5006071;28;20041;-73
2021/06/30 12:22:29;;;;;;;0.20;0.20;;;16.20;96.20;;;;;;5016297;28;20418;-73
2021/06/30 12:25:03;;;;;;;0.10;0.10;;;16.00;97.70;;;;;;5033577;28;20659;-73
2021/06/30 12:27:34;;;;;;;0.55;0.20;;;16.00;97.50;;;;;;5009035;28;20045;-73
2021/06/30 12:30:11;;;;;;;0.20;0.20;;;16.00;97.30;;;;;;5029266;28;20109;-73
2021/06/30 12:32:43;;;;;;;0.10;0.10;;;15.90;96.70;;;;;;5020985;28;20485;-72
2021/06/30 12:35:10;;;;;;;0.10;0.10;;;16.00;98.30;;;;;;5022351;28;20020;-73
2021/06/30 12:37:37;;;;;;;0.10;0.10;;;15.90;97.40;;;;;;5024858;28;20050;-73
2021/06/30 12:40:06;;;;;;;0.20;0.20;;;15.90;99.20;;;;;;5022951;28;20032;-73
2021/06/30 12:42:58;;;;;;;0.10;0.10;;;15.90;99.90;;;;;;5005911;28;20073;-73
2021/06/30 12:45:41;;;;;;;0.10;0.10;;;15.90;99.90;;;;;;5033130;28;20512;-73
2021/06/30 12:48:09;;;;;;;0.30;0.30;;;15.80;99.90;;;;;;5033480;28;20090;-72
2021/06/30 12:50:52;;;;;;;0.10;0.10;;;15.80;99.90;;;;;;5032776;28;20026;-73
2021/06/30 12:53:24;;;;;;;0.10;0.10;;;15.90;99.90;;;;;;5033467;28;20374;-73
2021/06/30 12:56:06;;;;;;;0.10;0.10;;;16.00;99.90;;;;;;5032714;28;20017;-73
2021/06/30 12:58:42;;;;;;;0.10;0.10;;;16.00;99.90;;;;;;5019047;28;20131;-73
2021/06/30 13:01:15;;;;;;;0.10;0.10;;;15.90;99.90;;;;;;5027894;28;20025;-73
2021/06/30 13:03:44;;;;;;;0.30;0.30;;;15.80;99.90;;;;;;5032646;28;20014;-72